sensor_id;sensor_type;location;lat;lon;timestamp;P1;durP1;ratioP1;P2;durP2;ratioP2
35877;SDS011;21982;49.804;24.072;2023-08-01T00:02:05;10.80;;;7.47;;
35877;SDS011;21982;49.804;24.072;2023-08-01T00:04:30;10.93;;;7.55;;
35877;SDS011;21982;49.804;24.072;2023-08-01T00:06:56;11.07;;;7.97;;
35877;SDS011;21982;49.804;24.072;2023-08-01T00:09:21;11.07;;;7.28;;
35877;SDS011;21982;49.804;24.072;2023-08-01T00:11:46;11.38;;;6.78;;
35877;SDS011;21982;49.804;24.072;2023-08-01T00:14:12;11.68;;;7.22;;
35877;SDS011;21982;49.804;24.072;2023-08-01T00:16:37;12.52;;;7.50;;
35877;SDS011;21982;49.804;24.072;2023-08-01T00:19:02;15.02;;;8.20;;
35877;SDS011;21982;49.804;24.072;2023-08-01T00:21:28;13.07;;;7.88;;
35877;SDS011;21982;49.804;24.072;2023-08-01T00:23:56;10.30;;;7.55;;
35877;SDS011;21982;49.804;24.072;2023-08-01T00:26:22;12.85;;;7.82;;
35877;SDS011;21982;49.804;24.072;2023-08-01T00:28:48;11.82;;;8.15;;
35877;SDS011;21982;49.804;24.072;2023-08-01T00:31:14;12.75;;;7.60;;
35877;SDS011;21982;49.804;24.072;2023-08-01T00:33:41;12.02;;;7.07;;
35877;SDS011;21982;49.804;24.072;2023-08-01T00:36:06;14.98;;;8.15;;
35877;SDS011;21982;49.804;24.072;2023-08-01T00:38:34;16.45;;;8.32;;
35877;SDS011;21982;49.804;24.072;2023-08-01T00:41:00;13.00;;;7.55;;
35877;SDS011;21982;49.804;24.072;2023-08-01T00:43:26;11.85;;;7.38;;
35877;SDS011;21982;49.804;24.072;2023-08-01T00:45:52;10.93;;;7.07;;
35877;SDS011;21982;49.804;24.072;2023-08-01T00:48:24;11.18;;;7.97;;
35877;SDS011;21982;49.804;24.072;2023-08-01T00:50:49;14.10;;;8.02;;
35877;SDS011;21982;49.804;24.072;2023-08-01T00:53:15;10.95;;;8.10;;
35877;SDS011;21982;49.804;24.072;2023-08-01T00:55:42;11.27;;;7.38;;
35877;SDS011;21982;49.804;24.072;2023-08-01T00:58:08;12.45;;;8.52;;
35877;SDS011;21982;49.804;24.072;2023-08-01T01:00:33;13.48;;;7.68;;
35877;SDS011;21982;49.804;24.072;2023-08-01T01:02:59;11.93;;;7.97;;
35877;SDS011;21982;49.804;24.072;2023-08-01T01:05:25;14.10;;;7.72;;
35877;SDS011;21982;49.804;24.072;2023-08-01T01:07:54;13.80;;;8.07;;
35877;SDS011;21982;49.804;24.072;2023-08-01T01:10:20;12.27;;;8.18;;
35877;SDS011;21982;49.804;24.072;2023-08-01T01:12:46;11.65;;;7.95;;
35877;SDS011;21982;49.804;24.072;2023-08-01T01:15:12;14.45;;;8.25;;
35877;SDS011;21982;49.804;24.072;2023-08-01T01:17:37;13.23;;;9.05;;
35877;SDS011;21982;49.804;24.072;2023-08-01T01:20:03;12.02;;;7.55;;
35877;SDS011;21982;49.804;24.072;2023-08-01T01:22:29;12.48;;;7.85;;
35877;SDS011;21982;49.804;24.072;2023-08-01T01:24:55;15.35;;;9.15;;
35877;SDS011;21982;49.804;24.072;2023-08-01T01:27:21;16.83;;;8.57;;
35877;SDS011;21982;49.804;24.072;2023-08-01T01:29:48;13.13;;;8.73;;
35877;SDS011;21982;49.804;24.072;2023-08-01T01:32:14;12.48;;;8.70;;
35877;SDS011;21982;49.804;24.072;2023-08-01T01:34:41;14.85;;;9.07;;
35877;SDS011;21982;49.804;24.072;2023-08-01T01:37:07;14.95;;;10.13;;
35877;SDS011;21982;49.804;24.072;2023-08-01T01:39:32;13.40;;;9.35;;
35877;SDS011;21982;49.804;24.072;2023-08-01T01:41:58;12.75;;;9.70;;
35877;SDS011;21982;49.804;24.072;2023-08-01T01:44:23;11.40;;;7.57;;
35877;SDS011;21982;49.804;24.072;2023-08-01T01:46:50;10.95;;;8.30;;
35877;SDS011;21982;49.804;24.072;2023-08-01T01:49:15;13.65;;;8.93;;
35877;SDS011;21982;49.804;24.072;2023-08-01T01:51:41;12.10;;;7.80;;
35877;SDS011;21982;49.804;24.072;2023-08-01T01:54:06;13.10;;;7.57;;
35877;SDS011;21982;49.804;24.072;2023-08-01T01:56:32;12.57;;;7.40;;
35877;SDS011;21982;49.804;24.072;2023-08-01T01:58:58;13.77;;;6.88;;
35877;SDS011;21982;49.804;24.072;2023-08-01T02:01:23;11.93;;;7.15;;
35877;SDS011;21982;49.804;24.072;2023-08-01T02:03:49;14.68;;;7.75;;
35877;SDS011;21982;49.804;24.072;2023-08-01T02:06:15;11.13;;;6.95;;
35877;SDS011;21982;49.804;24.072;2023-08-01T02:08:40;13.13;;;7.45;;
35877;SDS011;21982;49.804;24.072;2023-08-01T02:11:06;11.25;;;7.10;;
35877;SDS011;21982;49.804;24.072;2023-08-01T02:13:31;11.73;;;7.10;;
35877;SDS011;21982;49.804;24.072;2023-08-01T02:15:57;14.85;;;7.00;;
35877;SDS011;21982;49.804;24.072;2023-08-01T02:18:22;15.23;;;7.45;;
35877;SDS011;21982;49.804;24.072;2023-08-01T02:20:48;11.32;;;6.65;;
35877;SDS011;21982;49.804;24.072;2023-08-01T02:23:13;12.70;;;7.70;;
35877;SDS011;21982;49.804;24.072;2023-08-01T02:25:39;11.60;;;7.30;;
35877;SDS011;21982;49.804;24.072;2023-08-01T02:28:06;12.15;;;7.88;;
35877;SDS011;21982;49.804;24.072;2023-08-01T02:30:33;11.27;;;6.68;;
35877;SDS011;21982;49.804;24.072;2023-08-01T02:33:01;8.98;;;5.68;;
35877;SDS011;21982;49.804;24.072;2023-08-01T02:35:27;10.57;;;6.75;;
35877;SDS011;21982;49.804;24.072;2023-08-01T02:37:53;12.70;;;6.63;;
35877;SDS011;21982;49.804;24.072;2023-08-01T02:40:19;10.30;;;6.20;;
35877;SDS011;21982;49.804;24.072;2023-08-01T02:42:45;9.40;;;6.65;;
35877;SDS011;21982;49.804;24.072;2023-08-01T02:45:10;9.45;;;5.90;;
35877;SDS011;21982;49.804;24.072;2023-08-01T02:47:36;10.02;;;5.45;;
35877;SDS011;21982;49.804;24.072;2023-08-01T02:50:02;9.60;;;5.57;;
35877;SDS011;21982;49.804;24.072;2023-08-01T02:52:28;8.75;;;4.72;;
35877;SDS011;21982;49.804;24.072;2023-08-01T02:54:53;9.90;;;5.72;;
35877;SDS011;21982;49.804;24.072;2023-08-01T02:57:18;9.35;;;5.10;;
35877;SDS011;21982;49.804;24.072;2023-08-01T02:59:44;9.27;;;5.50;;
35877;SDS011;21982;49.804;24.072;2023-08-01T03:02:16;11.23;;;6.10;;
35877;SDS011;21982;49.804;24.072;2023-08-01T03:04:42;10.00;;;6.70;;
35877;SDS011;21982;49.804;24.072;2023-08-01T03:07:07;13.23;;;7.68;;
35877;SDS011;21982;49.804;24.072;2023-08-01T03:09:33;8.98;;;6.00;;
35877;SDS011;21982;49.804;24.072;2023-08-01T03:11:58;14.27;;;7.18;;
35877;SDS011;21982;49.804;24.072;2023-08-01T03:14:24;11.85;;;7.00;;
35877;SDS011;21982;49.804;24.072;2023-08-01T03:16:51;12.38;;;6.85;;
35877;SDS011;21982;49.804;24.072;2023-08-01T03:19:16;11.45;;;6.65;;
35877;SDS011;21982;49.804;24.072;2023-08-01T03:21:41;12.25;;;6.78;;
35877;SDS011;21982;49.804;24.072;2023-08-01T03:24:07;10.15;;;6.05;;
35877;SDS011;21982;49.804;24.072;2023-08-01T03:26:34;14.98;;;8.45;;
35877;SDS011;21982;49.804;24.072;2023-08-01T03:29:02;12.52;;;6.88;;
35877;SDS011;21982;49.804;24.072;2023-08-01T03:31:28;9.75;;;6.57;;
35877;SDS011;21982;49.804;24.072;2023-08-01T03:33:54;10.77;;;7.90;;
35877;SDS011;21982;49.804;24.072;2023-08-01T03:36:19;12.50;;;8.68;;
35877;SDS011;21982;49.804;24.072;2023-08-01T03:38:46;10.85;;;7.75;;
35877;SDS011;21982;49.804;24.072;2023-08-01T03:41:11;11.35;;;7.85;;
35877;SDS011;21982;49.804;24.072;2023-08-01T03:43:40;13.75;;;7.28;;
35877;SDS011;21982;49.804;24.072;2023-08-01T03:46:07;13.30;;;6.95;;
35877;SDS011;21982;49.804;24.072;2023-08-01T03:48:32;10.52;;;6.45;;
35877;SDS011;21982;49.804;24.072;2023-08-01T03:50:58;9.02;;;5.72;;
35877;SDS011;21982;49.804;24.072;2023-08-01T03:53:23;9.35;;;5.90;;
35877;SDS011;21982;49.804;24.072;2023-08-01T03:55:49;9.75;;;6.55;;
35877;SDS011;21982;49.804;24.072;2023-08-01T03:58:14;11.48;;;7.15;;
35877;SDS011;21982;49.804;24.072;2023-08-01T04:00:40;13.60;;;7.28;;
35877;SDS011;21982;49.804;24.072;2023-08-01T04:03:05;10.55;;;6.40;;
35877;SDS011;21982;49.804;24.072;2023-08-01T04:05:31;14.13;;;6.80;;
35877;SDS011;21982;49.804;24.072;2023-08-01T04:07:56;10.40;;;6.15;;
35877;SDS011;21982;49.804;24.072;2023-08-01T04:10:22;10.95;;;6.78;;
35877;SDS011;21982;49.804;24.072;2023-08-01T04:12:48;8.65;;;6.07;;
35877;SDS011;21982;49.804;24.072;2023-08-01T04:15:15;10.30;;;6.40;;
35877;SDS011;21982;49.804;24.072;2023-08-01T04:17:41;12.32;;;7.15;;
35877;SDS011;21982;49.804;24.072;2023-08-01T04:20:07;11.60;;;7.75;;
35877;SDS011;21982;49.804;24.072;2023-08-01T04:22:33;11.75;;;6.50;;
35877;SDS011;21982;49.804;24.072;2023-08-01T04:24:58;13.52;;;7.20;;
35877;SDS011;21982;49.804;24.072;2023-08-01T04:27:24;10.95;;;6.28;;
35877;SDS011;21982;49.804;24.072;2023-08-01T04:29:49;10.63;;;6.20;;
35877;SDS011;21982;49.804;24.072;2023-08-01T04:32:15;8.88;;;5.85;;
35877;SDS011;21982;49.804;24.072;2023-08-01T04:34:41;12.68;;;6.45;;
35877;SDS011;21982;49.804;24.072;2023-08-01T04:37:07;10.20;;;6.00;;
35877;SDS011;21982;49.804;24.072;2023-08-01T04:39:33;12.93;;;5.45;;
35877;SDS011;21982;49.804;24.072;2023-08-01T04:41:58;9.95;;;4.65;;
35877;SDS011;21982;49.804;24.072;2023-08-01T04:44:24;8.50;;;5.22;;
35877;SDS011;21982;49.804;24.072;2023-08-01T04:46:50;7.75;;;4.93;;
35877;SDS011;21982;49.804;24.072;2023-08-01T04:49:18;9.73;;;4.90;;
35877;SDS011;21982;49.804;24.072;2023-08-01T04:51:44;10.77;;;5.43;;
35877;SDS011;21982;49.804;24.072;2023-08-01T04:54:09;8.82;;;4.40;;
35877;SDS011;21982;49.804;24.072;2023-08-01T04:56:35;8.20;;;4.68;;
35877;SDS011;21982;49.804;24.072;2023-08-01T04:59:00;10.35;;;5.28;;
35877;SDS011;21982;49.804;24.072;2023-08-01T05:01:27;11.00;;;5.22;;
35877;SDS011;21982;49.804;24.072;2023-08-01T05:03:52;11.45;;;4.20;;
35877;SDS011;21982;49.804;24.072;2023-08-01T05:06:17;6.85;;;3.90;;
35877;SDS011;21982;49.804;24.072;2023-08-01T05:08:43;8.57;;;3.95;;
35877;SDS011;21982;49.804;24.072;2023-08-01T05:11:09;8.68;;;4.35;;
35877;SDS011;21982;49.804;24.072;2023-08-01T05:13:34;9.27;;;4.30;;
35877;SDS011;21982;49.804;24.072;2023-08-01T05:16:00;8.00;;;3.97;;
35877;SDS011;21982;49.804;24.072;2023-08-01T05:18:25;9.27;;;3.97;;
35877;SDS011;21982;49.804;24.072;2023-08-01T05:20:50;7.75;;;3.92;;
35877;SDS011;21982;49.804;24.072;2023-08-01T05:23:16;9.38;;;3.78;;
35877;SDS011;21982;49.804;24.072;2023-08-01T05:25:41;8.73;;;3.58;;
35877;SDS011;21982;49.804;24.072;2023-08-01T05:28:06;7.68;;;3.30;;
35877;SDS011;21982;49.804;24.072;2023-08-01T05:30:32;6.20;;;3.10;;
35877;SDS011;21982;49.804;24.072;2023-08-01T05:32:57;8.40;;;4.28;;
35877;SDS011;21982;49.804;24.072;2023-08-01T05:35:23;6.53;;;2.97;;
35877;SDS011;21982;49.804;24.072;2023-08-01T05:37:48;6.65;;;3.35;;
35877;SDS011;21982;49.804;24.072;2023-08-01T05:40:13;7.10;;;3.40;;
35877;SDS011;21982;49.804;24.072;2023-08-01T05:42:39;6.30;;;3.25;;
35877;SDS011;21982;49.804;24.072;2023-08-01T05:45:06;4.07;;;2.55;;
35877;SDS011;21982;49.804;24.072;2023-08-01T05:47:33;6.78;;;3.38;;
35877;SDS011;21982;49.804;24.072;2023-08-01T05:50:00;8.43;;;2.95;;
35877;SDS011;21982;49.804;24.072;2023-08-01T05:52:26;7.95;;;3.30;;
35877;SDS011;21982;49.804;24.072;2023-08-01T05:54:51;11.40;;;4.80;;
35877;SDS011;21982;49.804;24.072;2023-08-01T05:57:16;6.40;;;3.65;;
35877;SDS011;21982;49.804;24.072;2023-08-01T05:59:42;7.70;;;3.40;;
35877;SDS011;21982;49.804;24.072;2023-08-01T06:02:07;9.65;;;3.15;;
35877;SDS011;21982;49.804;24.072;2023-08-01T06:04:33;9.73;;;4.13;;
35877;SDS011;21982;49.804;24.072;2023-08-01T06:06:58;6.90;;;3.75;;
35877;SDS011;21982;49.804;24.072;2023-08-01T06:09:24;5.82;;;3.20;;
35877;SDS011;21982;49.804;24.072;2023-08-01T06:11:50;4.80;;;2.92;;
35877;SDS011;21982;49.804;24.072;2023-08-01T06:14:15;9.63;;;3.03;;
35877;SDS011;21982;49.804;24.072;2023-08-01T06:16:41;6.82;;;3.20;;
35877;SDS011;21982;49.804;24.072;2023-08-01T06:19:06;6.50;;;2.75;;
35877;SDS011;21982;49.804;24.072;2023-08-01T06:21:32;8.18;;;2.80;;
35877;SDS011;21982;49.804;24.072;2023-08-01T06:23:57;9.20;;;2.80;;
35877;SDS011;21982;49.804;24.072;2023-08-01T06:26:23;8.90;;;2.85;;
35877;SDS011;21982;49.804;24.072;2023-08-01T06:28:48;8.93;;;2.88;;
35877;SDS011;21982;49.804;24.072;2023-08-01T06:31:14;4.10;;;2.38;;
35877;SDS011;21982;49.804;24.072;2023-08-01T06:33:39;8.90;;;3.55;;
35877;SDS011;21982;49.804;24.072;2023-08-01T06:36:05;6.97;;;2.70;;
35877;SDS011;21982;49.804;24.072;2023-08-01T06:38:30;4.82;;;3.25;;
35877;SDS011;21982;49.804;24.072;2023-08-01T06:40:57;5.93;;;2.55;;
35877;SDS011;21982;49.804;24.072;2023-08-01T06:43:23;7.10;;;2.67;;
35877;SDS011;21982;49.804;24.072;2023-08-01T06:45:52;3.15;;;2.00;;
35877;SDS011;21982;49.804;24.072;2023-08-01T06:48:17;4.60;;;2.55;;
35877;SDS011;21982;49.804;24.072;2023-08-01T06:50:44;8.23;;;2.55;;
35877;SDS011;21982;49.804;24.072;2023-08-01T06:53:09;4.05;;;2.00;;
35877;SDS011;21982;49.804;24.072;2023-08-01T06:55:36;4.97;;;2.53;;
35877;SDS011;21982;49.804;24.072;2023-08-01T06:58:01;4.97;;;2.00;;
35877;SDS011;21982;49.804;24.072;2023-08-01T07:00:26;3.97;;;1.98;;
35877;SDS011;21982;49.804;24.072;2023-08-01T07:02:52;8.43;;;2.95;;
35877;SDS011;21982;49.804;24.072;2023-08-01T07:05:18;6.28;;;2.50;;
35877;SDS011;21982;49.804;24.072;2023-08-01T07:07:44;4.40;;;2.30;;
35877;SDS011;21982;49.804;24.072;2023-08-01T07:10:10;5.28;;;2.30;;
35877;SDS011;21982;49.804;24.072;2023-08-01T07:12:36;10.65;;;2.38;;
35877;SDS011;21982;49.804;24.072;2023-08-01T07:15:01;5.53;;;2.53;;
35877;SDS011;21982;49.804;24.072;2023-08-01T07:17:27;4.30;;;1.77;;
35877;SDS011;21982;49.804;24.072;2023-08-01T07:19:52;5.30;;;2.25;;
35877;SDS011;21982;49.804;24.072;2023-08-01T07:22:20;4.32;;;1.90;;
35877;SDS011;21982;49.804;24.072;2023-08-01T07:24:45;5.25;;;2.20;;
35877;SDS011;21982;49.804;24.072;2023-08-01T07:27:11;4.65;;;2.30;;
35877;SDS011;21982;49.804;24.072;2023-08-01T07:29:37;7.55;;;2.30;;
35877;SDS011;21982;49.804;24.072;2023-08-01T07:32:02;6.47;;;2.53;;
35877;SDS011;21982;49.804;24.072;2023-08-01T07:34:28;3.65;;;2.00;;
35877;SDS011;21982;49.804;24.072;2023-08-01T07:36:54;5.75;;;1.90;;
35877;SDS011;21982;49.804;24.072;2023-08-01T07:39:19;3.70;;;1.85;;
35877;SDS011;21982;49.804;24.072;2023-08-01T07:41:44;2.95;;;1.67;;
35877;SDS011;21982;49.804;24.072;2023-08-01T07:44:10;3.55;;;1.98;;
35877;SDS011;21982;49.804;24.072;2023-08-01T07:46:35;2.63;;;1.80;;
35877;SDS011;21982;49.804;24.072;2023-08-01T07:49:01;8.30;;;2.33;;
35877;SDS011;21982;49.804;24.072;2023-08-01T07:51:26;5.82;;;2.28;;
35877;SDS011;21982;49.804;24.072;2023-08-01T07:53:52;4.93;;;2.30;;
35877;SDS011;21982;49.804;24.072;2023-08-01T07:56:19;3.33;;;1.80;;
35877;SDS011;21982;49.804;24.072;2023-08-01T07:58:44;5.60;;;2.63;;
35877;SDS011;21982;49.804;24.072;2023-08-01T08:01:10;7.57;;;2.53;;
35877;SDS011;21982;49.804;24.072;2023-08-01T08:03:35;4.80;;;2.13;;
35877;SDS011;21982;49.804;24.072;2023-08-01T08:06:00;3.90;;;2.22;;
35877;SDS011;21982;49.804;24.072;2023-08-01T08:08:28;4.75;;;1.80;;
35877;SDS011;21982;49.804;24.072;2023-08-01T08:10:53;3.08;;;1.92;;
35877;SDS011;21982;49.804;24.072;2023-08-01T08:13:19;5.30;;;1.90;;
35877;SDS011;21982;49.804;24.072;2023-08-01T08:15:45;5.22;;;2.33;;
35877;SDS011;21982;49.804;24.072;2023-08-01T08:18:10;5.85;;;2.33;;
35877;SDS011;21982;49.804;24.072;2023-08-01T08:20:43;5.28;;;1.85;;
35877;SDS011;21982;49.804;24.072;2023-08-01T08:23:10;3.38;;;1.75;;
35877;SDS011;21982;49.804;24.072;2023-08-01T08:25:39;4.88;;;1.70;;
35877;SDS011;21982;49.804;24.072;2023-08-01T08:28:05;6.88;;;1.80;;
35877;SDS011;21982;49.804;24.072;2023-08-01T08:30:31;5.68;;;1.63;;
35877;SDS011;21982;49.804;24.072;2023-08-01T08:32:57;3.53;;;1.88;;
35877;SDS011;21982;49.804;24.072;2023-08-01T08:35:23;4.07;;;1.90;;
35877;SDS011;21982;49.804;24.072;2023-08-01T08:37:49;6.03;;;1.70;;
35877;SDS011;21982;49.804;24.072;2023-08-01T08:40:14;3.28;;;1.80;;
35877;SDS011;21982;49.804;24.072;2023-08-01T08:42:39;4.15;;;2.10;;
35877;SDS011;21982;49.804;24.072;2023-08-01T08:45:05;4.93;;;2.08;;
35877;SDS011;21982;49.804;24.072;2023-08-01T08:47:34;4.45;;;2.20;;
35877;SDS011;21982;49.804;24.072;2023-08-01T08:50:01;5.18;;;1.88;;
35877;SDS011;21982;49.804;24.072;2023-08-01T08:52:27;2.90;;;1.65;;
35877;SDS011;21982;49.804;24.072;2023-08-01T08:54:52;4.53;;;1.80;;
35877;SDS011;21982;49.804;24.072;2023-08-01T08:57:18;4.63;;;1.88;;
35877;SDS011;21982;49.804;24.072;2023-08-01T08:59:46;3.47;;;1.73;;
35877;SDS011;21982;49.804;24.072;2023-08-01T09:02:12;6.82;;;2.00;;
35877;SDS011;21982;49.804;24.072;2023-08-01T09:04:41;3.20;;;1.70;;
35877;SDS011;21982;49.804;24.072;2023-08-01T09:07:07;2.22;;;1.23;;
35877;SDS011;21982;49.804;24.072;2023-08-01T09:09:36;5.53;;;1.50;;
35877;SDS011;21982;49.804;24.072;2023-08-01T09:12:02;4.68;;;1.95;;
35877;SDS011;21982;49.804;24.072;2023-08-01T09:14:27;4.10;;;1.52;;
35877;SDS011;21982;49.804;24.072;2023-08-01T09:16:54;3.97;;;1.58;;
35877;SDS011;21982;49.804;24.072;2023-08-01T09:19:20;5.82;;;1.50;;
35877;SDS011;21982;49.804;24.072;2023-08-01T09:21:48;5.03;;;1.30;;
35877;SDS011;21982;49.804;24.072;2023-08-01T09:24:16;8.65;;;2.25;;
35877;SDS011;21982;49.804;24.072;2023-08-01T09:26:43;6.65;;;2.25;;
35877;SDS011;21982;49.804;24.072;2023-08-01T09:29:09;6.47;;;1.70;;
35877;SDS011;21982;49.804;24.072;2023-08-01T09:31:36;7.32;;;1.88;;
35877;SDS011;21982;49.804;24.072;2023-08-01T09:34:03;2.80;;;1.50;;
35877;SDS011;21982;49.804;24.072;2023-08-01T09:36:34;5.07;;;2.05;;
35877;SDS011;21982;49.804;24.072;2023-08-01T09:39:00;7.32;;;1.75;;
35877;SDS011;21982;49.804;24.072;2023-08-01T09:41:30;3.15;;;1.63;;
35877;SDS011;21982;49.804;24.072;2023-08-01T09:43:56;3.80;;;2.08;;
35877;SDS011;21982;49.804;24.072;2023-08-01T09:46:23;5.30;;;1.88;;
35877;SDS011;21982;49.804;24.072;2023-08-01T09:48:49;4.03;;;1.67;;
35877;SDS011;21982;49.804;24.072;2023-08-01T09:51:15;3.78;;;1.67;;
35877;SDS011;21982;49.804;24.072;2023-08-01T09:53:52;5.28;;;1.77;;
35877;SDS011;21982;49.804;24.072;2023-08-01T09:56:21;3.42;;;1.73;;
35877;SDS011;21982;49.804;24.072;2023-08-01T09:58:51;2.83;;;1.60;;
35877;SDS011;21982;49.804;24.072;2023-08-01T10:01:19;3.88;;;1.48;;
35877;SDS011;21982;49.804;24.072;2023-08-01T10:03:46;6.97;;;2.38;;
35877;SDS011;21982;49.804;24.072;2023-08-01T10:06:22;4.85;;;1.90;;
35877;SDS011;21982;49.804;24.072;2023-08-01T10:08:49;2.88;;;1.65;;
35877;SDS011;21982;49.804;24.072;2023-08-01T10:11:19;4.07;;;1.92;;
35877;SDS011;21982;49.804;24.072;2023-08-01T10:13:46;7.47;;;2.03;;
35877;SDS011;21982;49.804;24.072;2023-08-01T10:16:12;4.70;;;1.88;;
35877;SDS011;21982;49.804;24.072;2023-08-01T10:18:38;3.97;;;1.77;;
35877;SDS011;21982;49.804;24.072;2023-08-01T10:21:08;4.03;;;1.70;;
35877;SDS011;21982;49.804;24.072;2023-08-01T10:23:36;3.08;;;1.90;;
35877;SDS011;21982;49.804;24.072;2023-08-01T10:26:04;4.63;;;1.90;;
35877;SDS011;21982;49.804;24.072;2023-08-01T10:28:34;5.57;;;1.73;;
35877;SDS011;21982;49.804;24.072;2023-08-01T10:31:10;6.03;;;1.90;;
35877;SDS011;21982;49.804;24.072;2023-08-01T10:33:38;3.30;;;1.80;;
35877;SDS011;21982;49.804;24.072;2023-08-01T10:36:18;5.90;;;2.60;;
35877;SDS011;21982;49.804;24.072;2023-08-01T10:38:49;6.68;;;2.13;;
35877;SDS011;21982;49.804;24.072;2023-08-01T10:41:34;3.05;;;1.75;;
35877;SDS011;21982;49.804;24.072;2023-08-01T10:44:07;4.95;;;2.13;;
35877;SDS011;21982;49.804;24.072;2023-08-01T10:49:19;8.05;;;2.85;;
35877;SDS011;21982;49.804;24.072;2023-08-01T10:51:47;7.05;;;1.60;;
35877;SDS011;21982;49.804;24.072;2023-08-01T10:54:19;7.18;;;1.88;;
35877;SDS011;21982;49.804;24.072;2023-08-01T11:09:48;7.18;;;1.95;;
35877;SDS011;21982;49.804;24.072;2023-08-01T11:12:13;4.97;;;1.67;;
35877;SDS011;21982;49.804;24.072;2023-08-01T11:14:46;5.38;;;2.10;;
35877;SDS011;21982;49.804;24.072;2023-08-01T11:17:12;4.78;;;1.92;;
35877;SDS011;21982;49.804;24.072;2023-08-01T11:19:38;6.00;;;2.22;;
35877;SDS011;21982;49.804;24.072;2023-08-01T11:22:08;4.40;;;1.95;;
35877;SDS011;21982;49.804;24.072;2023-08-01T11:24:34;8.50;;;2.03;;
35877;SDS011;21982;49.804;24.072;2023-08-01T11:26:59;1.85;;;1.10;;
35877;SDS011;21982;49.804;24.072;2023-08-01T11:29:25;5.63;;;1.70;;
35877;SDS011;21982;49.804;24.072;2023-08-01T11:31:57;2.80;;;1.30;;
35877;SDS011;21982;49.804;24.072;2023-08-01T11:34:24;6.70;;;2.00;;
35877;SDS011;21982;49.804;24.072;2023-08-01T11:36:53;4.47;;;1.58;;
35877;SDS011;21982;49.804;24.072;2023-08-01T11:39:19;5.75;;;1.98;;
35877;SDS011;21982;49.804;24.072;2023-08-01T11:41:47;4.55;;;1.90;;
35877;SDS011;21982;49.804;24.072;2023-08-01T11:44:12;3.20;;;1.60;;
35877;SDS011;21982;49.804;24.072;2023-08-01T11:46:38;5.10;;;2.28;;
35877;SDS011;21982;49.804;24.072;2023-08-01T11:49:08;8.85;;;2.72;;
35877;SDS011;21982;49.804;24.072;2023-08-01T11:51:43;4.38;;;1.85;;
35877;SDS011;21982;49.804;24.072;2023-08-01T11:54:11;6.85;;;1.80;;
35877;SDS011;21982;49.804;24.072;2023-08-01T11:56:38;2.75;;;1.42;;
35877;SDS011;21982;49.804;24.072;2023-08-01T11:59:08;2.80;;;1.60;;
35877;SDS011;21982;49.804;24.072;2023-08-01T12:01:39;3.75;;;1.60;;
35877;SDS011;21982;49.804;24.072;2023-08-01T12:04:11;4.03;;;1.55;;
35877;SDS011;21982;49.804;24.072;2023-08-01T12:06:37;6.88;;;1.90;;
35877;SDS011;21982;49.804;24.072;2023-08-01T12:09:09;5.40;;;2.55;;
35877;SDS011;21982;49.804;24.072;2023-08-01T12:11:36;7.32;;;2.28;;
35877;SDS011;21982;49.804;24.072;2023-08-01T12:14:09;6.05;;;1.77;;
35877;SDS011;21982;49.804;24.072;2023-08-01T12:19:07;3.13;;;1.40;;
35877;SDS011;21982;49.804;24.072;2023-08-01T12:21:36;4.85;;;1.60;;
35877;SDS011;21982;49.804;24.072;2023-08-01T12:24:02;2.90;;;0.98;;
35877;SDS011;21982;49.804;24.072;2023-08-01T12:26:28;3.08;;;1.40;;
35877;SDS011;21982;49.804;24.072;2023-08-01T12:28:54;3.75;;;1.50;;
35877;SDS011;21982;49.804;24.072;2023-08-01T12:31:20;3.60;;;1.50;;
35877;SDS011;21982;49.804;24.072;2023-08-01T12:33:46;5.18;;;1.90;;
35877;SDS011;21982;49.804;24.072;2023-08-01T12:36:12;2.42;;;1.23;;
35877;SDS011;21982;49.804;24.072;2023-08-01T12:38:39;4.13;;;1.52;;
35877;SDS011;21982;49.804;24.072;2023-08-01T12:41:05;2.95;;;1.15;;
35877;SDS011;21982;49.804;24.072;2023-08-01T12:43:31;3.88;;;1.33;;
35877;SDS011;21982;49.804;24.072;2023-08-01T12:45:56;2.28;;;1.38;;
35877;SDS011;21982;49.804;24.072;2023-08-01T12:48:23;3.42;;;1.45;;
35877;SDS011;21982;49.804;24.072;2023-08-01T12:50:52;4.93;;;1.40;;
35877;SDS011;21982;49.804;24.072;2023-08-01T12:53:19;4.07;;;1.20;;
35877;SDS011;21982;49.804;24.072;2023-08-01T12:55:48;2.90;;;1.30;;
35877;SDS011;21982;49.804;24.072;2023-08-01T12:58:15;2.60;;;1.15;;
35877;SDS011;21982;49.804;24.072;2023-08-01T13:00:42;2.88;;;0.98;;
35877;SDS011;21982;49.804;24.072;2023-08-01T13:03:12;2.67;;;1.15;;
35877;SDS011;21982;49.804;24.072;2023-08-01T13:05:39;6.38;;;1.58;;
35877;SDS011;21982;49.804;24.072;2023-08-01T13:08:06;3.85;;;2.17;;
35877;SDS011;21982;49.804;24.072;2023-08-01T13:10:32;3.22;;;1.50;;
35877;SDS011;21982;49.804;24.072;2023-08-01T13:12:59;4.65;;;1.50;;
35877;SDS011;21982;49.804;24.072;2023-08-01T13:15:25;3.13;;;1.38;;
35877;SDS011;21982;49.804;24.072;2023-08-01T13:17:52;4.57;;;1.65;;
35877;SDS011;21982;49.804;24.072;2023-08-01T13:20:17;3.75;;;1.45;;
35877;SDS011;21982;49.804;24.072;2023-08-01T13:22:45;2.60;;;1.33;;
35877;SDS011;21982;49.804;24.072;2023-08-01T13:25:12;3.33;;;1.60;;
35877;SDS011;21982;49.804;24.072;2023-08-01T13:27:41;2.38;;;1.27;;
35877;SDS011;21982;49.804;24.072;2023-08-01T13:30:07;4.85;;;1.65;;
35877;SDS011;21982;49.804;24.072;2023-08-01T13:32:33;5.05;;;1.27;;
35877;SDS011;21982;49.804;24.072;2023-08-01T13:35:01;4.28;;;1.83;;
35877;SDS011;21982;49.804;24.072;2023-08-01T13:37:27;3.85;;;1.75;;
35877;SDS011;21982;49.804;24.072;2023-08-01T13:39:54;3.17;;;1.40;;
35877;SDS011;21982;49.804;24.072;2023-08-01T13:42:21;2.75;;;1.35;;
35877;SDS011;21982;49.804;24.072;2023-08-01T13:44:49;4.68;;;1.70;;
35877;SDS011;21982;49.804;24.072;2023-08-01T13:47:15;8.15;;;2.65;;
35877;SDS011;21982;49.804;24.072;2023-08-01T13:49:40;4.70;;;1.92;;
35877;SDS011;21982;49.804;24.072;2023-08-01T13:52:09;2.95;;;1.23;;
35877;SDS011;21982;49.804;24.072;2023-08-01T13:54:34;3.80;;;1.80;;
35877;SDS011;21982;49.804;24.072;2023-08-01T13:57:00;6.85;;;1.83;;
35877;SDS011;21982;49.804;24.072;2023-08-01T13:59:28;7.63;;;1.55;;
35877;SDS011;21982;49.804;24.072;2023-08-01T14:02:04;5.30;;;1.55;;
35877;SDS011;21982;49.804;24.072;2023-08-01T14:04:29;4.13;;;1.60;;
35877;SDS011;21982;49.804;24.072;2023-08-01T14:06:55;4.93;;;1.77;;
35877;SDS011;21982;49.804;24.072;2023-08-01T14:09:23;7.25;;;1.95;;
35877;SDS011;21982;49.804;24.072;2023-08-01T14:11:49;2.22;;;1.13;;
35877;SDS011;21982;49.804;24.072;2023-08-01T14:14:14;3.67;;;1.90;;
35877;SDS011;21982;49.804;24.072;2023-08-01T14:16:39;4.70;;;1.83;;
35877;SDS011;21982;49.804;24.072;2023-08-01T14:19:05;5.50;;;1.90;;
35877;SDS011;21982;49.804;24.072;2023-08-01T14:21:33;4.00;;;1.70;;
35877;SDS011;21982;49.804;24.072;2023-08-01T14:24:02;4.07;;;1.63;;
35877;SDS011;21982;49.804;24.072;2023-08-01T14:26:28;6.53;;;1.98;;
35877;SDS011;21982;49.804;24.072;2023-08-01T14:28:54;2.53;;;1.48;;
35877;SDS011;21982;49.804;24.072;2023-08-01T14:31:20;3.00;;;1.63;;
35877;SDS011;21982;49.804;24.072;2023-08-01T14:33:46;7.15;;;2.17;;
35877;SDS011;21982;49.804;24.072;2023-08-01T14:36:12;6.88;;;1.95;;
35877;SDS011;21982;49.804;24.072;2023-08-01T14:38:37;5.65;;;1.83;;
35877;SDS011;21982;49.804;24.072;2023-08-01T14:41:06;6.63;;;2.08;;
35877;SDS011;21982;49.804;24.072;2023-08-01T14:43:32;5.15;;;2.60;;
35877;SDS011;21982;49.804;24.072;2023-08-01T14:45:59;7.68;;;2.05;;